A- A+ FrançaisEnglishEspañol中国

Services sur Internet Soldes sur Internet Des idées de cadeaux Météo Météo aéro

La météo à : Autours de vous Tarbes-Lourdes-PyrénéesDreux-Vernouillet La-Baule-Escoublac Meaux-Esbly

manche à air

La météo aéronautique pour les pilotes, la préparation du vol avec les METAR (METeorological Aerodrome Report, message d'observation des conditions météorologiques pour l'aviation) et Les TAF (Terminal Aerodrome Forecast : message de prévision à court terme des conditions météorologiques pour l'aviation). Et les autres ressources comme les VAC (Visual Approch Chart) et les NOTAM (Notice To Airman) pour préprer les vols.

Aéroport El Qued Guemar (Algérie) / OACI DAUO/ IATA ELU

L'altitude de l'aéroport El Qued Guemar est de 62 m = 203 ft. Il est situé à proximité de Guemar (Algérie). La météo générale à 5 jours est disponible pour Debila situé à 16.1 km.

METAR de l'aéroport El Qued Guemar - DAUO

DAUO 310700Z 20004KT CAVOK 16/10 Q1021

Décodage du METAR de l'aéroport El Qued Guemar (DZ)

METAR émis par DAUO le jeudi 31 octobre 2019 à 07:00 heure TU. Attention ce METAR est obsolète car il a été émis il y a 5 heure et 34 minutes.

La visibilité est de supérieure à 10 km = supérieure à 6.2 sm.

La température est de 16°C = 61 °F et le point rosée est de 10°C = 50 °F . Ce qui correspond à 68% d'humidité relative.

Le QNH est de 1021 hPa = 30.15 inHg

Vent de 4 kt = 7 km/h, orienté à 200°.

Pas de nuages.

TAF de l'aéroport El Qued Guemar - DAUO

DAUO 310500Z 3106/3115 20006KT CAVOK

DAUO 310500Z 3106/3115 20006KT visibilité supérieure à 10km, aucun nuage à une hauteur inférieure à 5000 ft ou sous l'altitude minimale de secteur et aucun cumulonimbus ou cumulus bourgeonnant, quelle que soit leur altitude

Aéroport à proximité de El Qued Guemar

Météo générale à 5 jours à Debila (16.1 km)Aéroport Touggourt Sidi Mahda (81 km)Aéroport Tozeur Nefta (132 km)Aéroport Biskra (Mohamed Khider?) (172 km)Aéroport Hassi-Messaoud Oued (213 km)Aéroport Gafsa (214 km)Aéroport Ouargla (218 km)

Vue aérienne de l'aéroport El Qued Guemar

NOTAM de l'aéroport El Qued Guemar

Les NOTAM sont fournis sans aucune garantie de leur actualité. Le pilote est le seul responsable de la vérification de sa validité avant de l'utiliser opérationnellement pour préparer un vol ou l'utiliser lors de sa navigation.

NOTAM Non-directional radio beacon (du jeudi 24 octobre 2019 à 07:08 au mardi 24 décembre 2019 à 09:30)

A2705/19 NOTAMR A2280/19
Q) DAAA/QNBXX/IV/NBO/AE/000/999/3331N00647E025
A) DAUO B) 1910240708 C) 1912240930 EST
E) NDB 'ELO' FREQ 358 KHZ OPR WO AUX SUPPLY
CREATED: 24 Oct 2019 07:07:00
SOURCE: DAAAYNYX

Sources des données